Latest Coastal Weather Observations for Darwin Harbour

IDD60701

Issued at 1:41 am CST Thursday 29 January 2015 (issued every 10 minutes, with the page automatically refreshed every 10 minutes)

About coastal observations | Map of coastal stations | Coastal observations for NT | Marine services | Other Formats
Station Details ID: 014072 Name: DARWIN NTC AWS Lat: -12.47 Lon: 130.85 Height: 0.0 m
Data from the previous 72 hours. | See also: Recent months for locations in Northern Territory
Date/Time
CST
Temp

°C
Wind Pressure Rain
since 9am
mm
Weather Cloud Vis
km
Sea
Height
m
Swell
Dir
 
Speed
knots
Gust
knots
hPa Trend Height
m
Period
s
Dir
29/01:30am 25.2 NE 3 6 1005.9 - - - - - - - - -
29/01:00am 25.3 NE 4 7 1006.3 - - - - - - - - -
29/12:30am 25.1 NNE 5 8 1006.4 - - - - - - - - -
29/12:00am 24.9 NE 6 9 1006.7 - - - - - - - - -
 
Date/Time
CST
Temp

°C
Wind Pressure Rain
since 9am
mm
Weather Cloud Vis
km
Sea
Height
m
Swell
Dir
 
Speed
knots
Gust
knots
hPa Trend Height
m
Period
s
Dir
28/11:30pm 25.2 NE 3 7 1006.9 - - - - - - - - -
28/11:00pm 25.3 ENE 5 8 1007.2 - - - - - - - - -
28/10:30pm 26.0 ENE 4 6 1007.2 - - - - - - - - -
28/10:00pm 26.1 E 7 9 1007.2 - - - - - - - - -
28/09:30pm 25.8 ENE 9 17 1006.7 - - - - - - - - -
28/09:00pm 26.1 NNW 6 12 1006.0 - - - - - - - - -
28/08:30pm 26.1 NNE 5 12 1005.7 - - - - - - - - -
28/08:00pm 26.3 N 4 7 1005.5 - - - - - - - - -
28/07:30pm 25.5 NNW 8 13 1004.9 - - - - - - - - -
28/07:00pm 24.9 NNE 5 10 1004.1 - - - - - - - - -
28/06:30pm 24.2 NE 6 13 1004.0 - - - - - - - - -
28/06:00pm 23.8 ENE 8 18 1004.1 - - - - - - - - -
28/05:30pm 23.8 E 16 26 1004.0 - - - - - - - - -
28/05:18pm 23.3 ENE 18 25 1003.7 - - - - - - - - -
28/05:00pm 26.2 NE 9 21 1003.2 - - - - - - - - -
28/04:30pm 30.9 WNW 8 10 1001.9 - - - - - - - - -
28/04:00pm 30.6 NW 11 16 1001.6 - - - - - - - - -
28/03:30pm 30.7 WNW 10 14 1001.9 - - - - - - - - -
28/03:00pm 30.2 WNW 9 14 1002.3 - - - - - - - - -
28/02:30pm 30.1 WNW 8 12 1002.8 - - - - - - - - -
28/02:00pm 30.4 WNW 8 13 1003.4 - - - - - - - - -
28/01:30pm 30.1 NW 7 13 1003.6 - - - - - - - - -
28/01:00pm 29.6 WNW 9 12 1003.9 - - - - - - - - -
28/12:30pm 30.0 WNW 7 12 1004.5 - - - - - - - - -
28/12:00pm 29.4 NW 8 13 1004.8 - - - - - - - - -
28/11:30am 29.6 WNW 8 11 1005.0 - - - - - - - - -
28/11:00am 28.8 W 3 5 1005.1 - - - - - - - - -
28/10:30am 28.3 SW 2 3 1005.6 - - - - - - - - -
28/10:00am 28.2 ESE 3 4 1005.5 - - - - - - - - -
28/09:30am 28.0 SSE 1 3 1005.4 - - - - - - - - -
28/09:00am 27.6 SSE 2 4 1005.4 - - - - - - - - -
28/08:30am 26.9 SSE 3 5 1005.2 - - - - - - - - -
28/08:00am 26.7 SSE 4 5 1004.9 - - - - - - - - -
28/07:30am 26.8 SSE 3 5 1004.5 - - - - - - - - -
28/07:00am 26.9 SSE 2 3 1003.9 - - - - - - - - -
28/06:30am 26.6 S 2 3 1003.7 - - - - - - - - -
28/06:00am 26.7 SE 3 4 1003.4 - - - - - - - - -
28/05:30am 26.8 S 5 6 1003.4 - - - - - - - - -
28/05:00am 26.9 SW 4 5 1003.2 - - - - - - - - -
28/04:30am 26.9 SE 1 2 1003.1 - - - - - - - - -
28/04:00am 26.7 SW 6 8 1003.5 - - - - - - - - -
28/03:30am 27.0 SW 6 8 1003.8 - - - - - - - - -
28/03:00am 27.3 WSW 4 5 1004.0 - - - - - - - - -
28/02:30am 27.3 WNW 1 2 1004.2 - - - - - - - - -
28/02:00am 27.3 WSW 3 4 1004.5 - - - - - - - - -
28/01:30am 27.3 SW 5 8 1005.1 - - - - - - - - -
28/01:00am 27.4 SSW 5 7 1005.4 - - - - - - - - -
28/12:30am 28.0 SW 5 8 1006.4 - - - - - - - - -
28/12:00am 28.1 WSW 5 7 1006.5 - - - - - - - - -
 
Date/Time
CST
Temp

°C
Wind Pressure Rain
since 9am
mm
Weather Cloud Vis
km
Sea
Height
m
Swell
Dir
 
Speed
knots
Gust
knots
hPa Trend Height
m
Period
s
Dir
27/11:30pm 28.0 WSW 6 8 1006.7 - - - - - - - - -
27/11:00pm 28.0 WSW 7 9 1006.9 - - - - - - - - -
27/10:30pm 28.0 WSW 6 9 1006.7 - - - - - - - - -
27/10:00pm 27.9 W 6 8 1006.7 - - - - - - - - -
27/09:30pm 27.9 W 5 8 1006.6 - - - - - - - - -
27/09:00pm 27.9 W 5 8 1006.4 - - - - - - - - -
27/08:30pm 27.7 W 7 9 1005.9 - - - - - - - - -
27/08:00pm 27.8 WSW 8 10 1005.3 - - - - - - - - -
27/07:30pm 27.8 W 9 12 1004.4 - - - - - - - - -
27/07:00pm 27.8 WSW 8 11 1003.9 - - - - - - - - -
27/06:30pm 27.8 W 9 12 1004.1 - - - - - - - - -
27/06:00pm 27.5 W 7 11 1003.7 - - - - - - - - -
27/05:30pm 27.5 W 5 7 1003.2 - - - - - - - - -
27/05:00pm 27.0 W 5 6 1003.3 - - - - - - - - -
27/04:30pm 26.2 NW 5 7 1003.6 - - - - - - - - -
27/04:00pm 26.1 NW 4 7 1003.8 - - - - - - - - -
27/03:30pm 26.1 W 5 9 1003.9 - - - - - - - - -
27/03:00pm 25.6 WSW 7 9 1004.1 - - - - - - - - -
27/02:30pm 25.1 SW 11 13 1004.6 - - - - - - - - -
27/02:00pm 25.1 SW 12 15 1004.8 - - - - - - - - -
27/01:30pm 24.1 SW 11 13 1005.7 - - - - - - - - -
27/01:00pm 23.1 WSW 12 17 1006.8 - - - - - - - - -
27/12:30pm 24.0 SW 18 24 1007.3 - - - - - - - - -
27/12:00pm 24.4 SSW 19 24 1007.2 - - - - - - - - -
27/11:30am 25.0 S 19 25 1007.5 - - - - - - - - -
27/11:28am 25.3 SSE 18 25 1007.6 - - - - - - - - -
27/11:21am 25.6 SSE 21 27 1007.2 - - - - - - - - -
27/11:15am 25.6 SSE 20 27 1007.3 - - - - - - - - -
27/11:08am 26.7 SSW 12 26 1007.0 - - - - - - - - -
27/11:05am 28.2 WSW 8 24 1007.2 - - - - - - - - -
27/11:00am 30.1 WSW 5 8 1007.0 - - - - - - - - -
27/10:30am 29.2 SW 2 3 1007.0 - - - - - - - - -
27/10:00am 29.0 SSW 1 2 1007.4 - - - - - - - - -
27/09:30am 28.4 SW 2 4 1007.7 - - - - - - - - -
27/09:00am 27.8 SW 4 6 1007.5 - - - - - - - - -
27/08:30am 27.7 SSW 5 7 1007.5 - - - - - - - - -
27/08:00am 27.9 SSW 6 8 1007.4 - - - - - - - - -
27/07:30am 28.3 WSW 5 8 1006.9 - - - - - - - - -
27/07:00am 28.2 WSW 6 8 1006.7 - - - - - - - - -
27/06:30am 28.5 W 5 7 1006.3 - - - - - - - - -
27/06:00am 28.4 W 5 7 1006.0 - - - - - - - - -
27/05:30am 28.4 W 6 9 1005.6 - - - - - - - - -
27/05:00am 28.0 NW 3 5 1005.2 - - - - - - - - -
27/04:30am 28.0 WNW 6 10 1005.1 - - - - - - - - -
27/04:00am 28.2 WNW 8 11 1005.0 - - - - - - - - -
27/03:30am 28.2 WNW 9 12 1004.9 - - - - - - - - -
27/03:00am 28.0 WNW 5 7 1005.0 - - - - - - - - -
27/02:30am 28.1 WNW 7 9 1005.1 - - - - - - - - -
27/02:00am 28.1 WNW 7 9 1005.6 - - - - - - - - -
27/01:30am 28.1 W 5 8 1005.9 - - - - - - - - -
27/01:00am 28.0 W 6 9 1006.5 - - - - - - - - -
27/12:30am 27.8 W 7 9 1007.0 - - - - - - - - -
27/12:00am 27.7 WSW 7 9 1007.5 - - - - - - - - -
 
Date/Time
CST
Temp

°C
Wind Pressure Rain
since 9am
mm
Weather Cloud Vis
km
Sea
Height
m
Swell
Dir
 
Speed
knots
Gust
knots
hPa Trend Height
m
Period
s
Dir
26/11:30pm 27.3 WSW 10 12 1007.9 - - - - - - - - -
26/11:00pm 28.4 WNW 8 9 1007.6 - - - - - - - - -
26/10:30pm 27.9 WNW 3 5 1007.2 - - - - - - - - -
26/10:00pm 27.8 NW 4 5 1007.1 - - - - - - - - -
26/09:30pm 28.1 W 5 7 1007.2 - - - - - - - - -
26/09:00pm 28.3 W 3 6 1006.9 - - - - - - - - -
26/08:30pm 28.4 W 4 6 1006.8 - - - - - - - - -
26/08:00pm 28.3 WNW 2 4 1006.7 - - - - - - - - -
26/07:30pm 28.2 NE 3 6 1005.8 - - - - - - - - -
26/07:00pm 28.4 ENE 3 7 1005.5 - - - - - - - - -
26/06:30pm 28.3 E 5 7 1005.7 - - - - - - - - -
26/06:00pm 28.4 ESE 5 8 1005.8 - - - - - - - - -
26/05:30pm 28.1 SE 6 8 1005.6 - - - - - - - - -
26/05:00pm 27.8 WSW 4 6 1005.5 - - - - - - - - -
26/04:30pm 27.7 SSW 4 4 1005.2 - - - - - - - - -
26/04:00pm 27.9 SSE 7 9 1005.3 - - - - - - - - -
26/03:30pm 28.4 W 5 8 1005.9 - - - - - - - - -
26/03:00pm 26.5 W 12 15 1005.8 - - - - - - - - -
26/02:30pm 28.1 WSW 9 12 1006.1 - - - - - - - - -
26/02:00pm 26.7 WSW 15 19 1006.3 - - - - - - - - -
26/01:30pm 26.3 SW 19 23 1006.7 - - - - - - - - -
26/01:00pm 27.3 SSW 16 19 1007.3 - - - - - - - - -
26/12:30pm 30.7 WNW 11 15 1007.2 - - - - - - - - -
26/12:00pm 30.6 WNW 8 12 1007.5 - - - - - - - - -
26/11:30am 30.3 WNW 8 13 1007.9 - - - - - - - - -
26/11:00am 30.0 WNW 8 11 1008.5 - - - - - - - - -
26/10:30am 29.8 WNW 8 11 1008.6 - - - - - - - - -
26/10:00am 29.4 W 7 9 1008.6 - - - - - - - - -
26/09:30am 29.4 W 5 7 1008.5 - - - - - - - - -
26/09:00am 29.3 WNW 7 10 1008.6 - - - - - - - - -
26/08:30am 28.9 WNW 8 11 1008.5 - - - - - - - - -
26/08:00am 28.4 WNW 7 11 1007.9 - - - - - - - - -
26/07:30am 27.8 WNW 5 7 1007.7 - - - - - - - - -
26/07:00am 27.8 W 4 5 1007.8 - - - - - - - - -
26/06:30am 27.6 WSW 5 6 1007.9 - - - - - - - - -
26/06:00am 26.7 N 2 4 1007.8 - - - - - - - - -
26/05:30am 26.7 NE 2 3 1007.1 - - - - - - - - -
26/05:00am 26.3 ENE 3 6 1007.2 - - - - - - - - -
26/04:30am 26.4 ESE 6 7 1007.0 - - - - - - - - -
26/04:00am 26.4 E 5 7 1006.9 - - - - - - - - -
26/03:30am 26.8 E 5 7 1006.6 - - - - - - - - -
26/03:00am 27.4 ESE 6 8 1006.6 - - - - - - - - -
26/02:30am 28.5 SW 3 5 1007.0 - - - - - - - - -
26/02:00am 28.7 W 3 5 1007.3 - - - - - - - - -

Other Formats:

Comma delimited format used in spreadsheet applications
http://www.bom.gov.au/fwo/IDD60701/IDD60701.95122.axf

JavaScript Object Notation format (JSON) in row-major order
http://www.bom.gov.au/fwo/IDD60701/IDD60701.95122.json